createdAt,value
2022-12-05T00:00:57.496Z,34.10
2022-12-05T00:01:57.889Z,34.40
2022-12-05T00:02:58.179Z,34.80
2022-12-05T00:03:58.585Z,35.50
2022-12-05T00:04:58.809Z,35.20
2022-12-05T00:05:59.020Z,34.40
2022-12-05T00:06:59.349Z,34.40
2022-12-05T00:07:59.786Z,35.00
2022-12-05T00:08:59.994Z,34.70
2022-12-05T00:10:00.525Z,35.50
2022-12-05T00:11:00.726Z,37.70
2022-12-05T00:12:00.800Z,36.50
2022-12-05T00:13:01.151Z,37.50
2022-12-05T00:14:01.516Z,37.60
2022-12-05T00:15:01.798Z,36.00
2022-12-05T00:16:01.985Z,36.10
2022-12-05T00:17:02.351Z,37.70
2022-12-05T00:18:02.480Z,38.20
2022-12-05T00:19:02.894Z,36.90
2022-12-05T00:20:03.188Z,37.10
2022-12-05T00:21:03.419Z,36.00
2022-12-05T00:22:03.666Z,35.80
2022-12-05T00:23:03.971Z,35.20
2022-12-05T00:24:04.285Z,34.90
2022-12-05T00:25:04.608Z,36.30
2022-12-05T00:26:04.892Z,36.90
2022-12-05T00:27:05.266Z,37.70
2022-12-05T00:28:05.621Z,37.90
2022-12-05T00:29:05.924Z,36.50
2022-12-05T00:30:06.222Z,37.80
2022-12-05T00:31:06.559Z,39.20
2022-12-05T00:32:06.963Z,40.50
2022-12-05T00:33:07.168Z,40.50
2022-12-05T00:34:07.525Z,40.20
2022-12-05T00:35:07.841Z,41.50
2022-12-05T00:36:08.170Z,40.30
2022-12-05T00:37:08.518Z,40.10
2022-12-05T00:38:08.801Z,39.60
2022-12-05T00:39:09.174Z,39.60
2022-12-05T00:40:09.491Z,39.40
2022-12-05T00:41:09.801Z,43.70
2022-12-05T00:42:10.172Z,38.10
2022-12-05T00:43:10.362Z,38.00
2022-12-05T00:44:10.619Z,36.50
2022-12-05T00:45:10.933Z,37.10
2022-12-05T00:46:11.280Z,36.60
2022-12-05T00:47:11.647Z,35.90
2022-12-05T00:48:11.833Z,34.90
2022-12-05T00:49:12.197Z,34.50
2022-12-05T00:50:12.410Z,34.60
2022-12-05T00:51:12.733Z,33.80
2022-12-05T00:52:13.005Z,35.30
2022-12-05T00:53:13.312Z,35.50
2022-12-05T00:54:13.655Z,37.10
2022-12-05T00:55:13.900Z,36.50
2022-12-05T00:56:14.172Z,36.10
2022-12-05T00:57:14.400Z,37.10
2022-12-05T00:58:14.648Z,36.30
2022-12-05T00:59:15.782Z,37.30
2022-12-05T01:00:15.152Z,36.80
2022-12-05T01:01:15.616Z,37.90
2022-12-05T01:02:15.746Z,37.40
2022-12-05T01:03:15.988Z,38.40
2022-12-05T01:04:16.220Z,37.70
2022-12-05T01:05:16.542Z,38.40
2022-12-05T01:06:16.873Z,38.40
2022-12-05T01:07:17.239Z,37.20
2022-12-05T01:08:17.491Z,37.80
2022-12-05T01:09:17.694Z,37.40
2022-12-05T01:10:18.002Z,38.00
2022-12-05T01:11:18.358Z,39.00
2022-12-05T01:12:18.717Z,38.80
2022-12-05T01:13:18.921Z,39.30
2022-12-05T01:14:19.240Z,38.50
2022-12-05T01:15:19.513Z,38.60
2022-12-05T01:16:19.798Z,39.30
2022-12-05T01:17:20.127Z,37.70
2022-12-05T01:18:20.466Z,37.00
2022-12-05T01:19:20.770Z,38.10
2022-12-05T01:20:20.962Z,38.00
2022-12-05T01:21:21.319Z,38.80
2022-12-05T01:22:21.593Z,37.50
2022-12-05T01:23:21.957Z,38.10
2022-12-05T01:24:22.163Z,38.40
2022-12-05T01:25:22.520Z,37.90
2022-12-05T01:26:22.745Z,37.50
2022-12-05T01:27:23.107Z,37.40
2022-12-05T01:28:23.375Z,38.00
2022-12-05T01:29:23.613Z,38.90
2022-12-05T01:30:23.786Z,38.50
2022-12-05T01:31:24.351Z,37.10
2022-12-05T01:32:24.440Z,37.70
2022-12-05T01:33:24.643Z,38.10
2022-12-05T01:34:24.991Z,39.20
2022-12-05T01:35:25.312Z,37.30
2022-12-05T01:36:25.660Z,38.20
2022-12-05T01:37:26.003Z,37.60
2022-12-05T01:38:26.185Z,37.30
2022-12-05T01:39:26.546Z,38.90
2022-12-05T01:40:26.724Z,39.70
2022-12-05T01:41:27.061Z,39.30
2022-12-05T01:42:27.307Z,37.70
2022-12-05T01:43:27.655Z,38.40
2022-12-05T01:44:27.989Z,38.60
2022-12-05T01:45:28.414Z,37.90
2022-12-05T01:46:28.636Z,37.80
2022-12-05T01:47:28.885Z,38.60
2022-12-05T01:48:29.219Z,39.30
2022-12-05T01:49:29.536Z,38.10
2022-12-05T01:50:29.842Z,38.90
2022-12-05T01:51:30.213Z,38.90
2022-12-05T01:52:30.458Z,38.60
2022-12-05T01:53:30.694Z,36.90
2022-12-05T01:54:30.900Z,38.20
2022-12-05T01:55:31.265Z,38.50
2022-12-05T01:56:31.552Z,38.30
2022-12-05T01:57:31.792Z,38.50
2022-12-05T01:58:31.982Z,38.20
2022-12-05T01:59:32.280Z,38.10
2022-12-05T02:00:32.599Z,37.90
2022-12-05T02:01:33.048Z,38.60
2022-12-05T02:02:34.086Z,39.40
2022-12-05T02:03:33.600Z,37.50
2022-12-05T02:04:33.781Z,38.00
2022-12-05T02:05:34.099Z,37.70
2022-12-05T02:06:34.406Z,36.50
2022-12-05T02:07:34.779Z,36.90
2022-12-05T02:08:35.093Z,37.40
2022-12-05T02:09:35.429Z,35.30
2022-12-05T02:10:35.598Z,35.90
2022-12-05T02:11:35.942Z,35.30
2022-12-05T02:12:38.971Z,36.30
2022-12-05T02:13:36.639Z,35.60
2022-12-05T02:14:36.863Z,33.50
2022-12-05T02:15:37.165Z,33.50
2022-12-05T02:16:37.592Z,35.50
2022-12-05T02:17:37.856Z,33.40
2022-12-05T02:18:38.048Z,33.30
2022-12-05T02:19:38.395Z,32.50
2022-12-05T02:20:38.571Z,33.00
2022-12-05T02:21:38.962Z,33.90
2022-12-05T02:22:39.163Z,34.70
2022-12-05T02:23:39.515Z,33.80
2022-12-05T02:24:39.788Z,33.10
2022-12-05T02:25:40.004Z,34.70
2022-12-05T02:26:40.261Z,34.40
2022-12-05T02:27:40.565Z,33.40
2022-12-05T02:28:40.896Z,33.50
2022-12-05T02:29:41.693Z,33.70
2022-12-05T02:30:41.468Z,35.00
2022-12-05T02:31:41.757Z,34.30
2022-12-05T02:32:42.015Z,35.10
2022-12-05T02:33:42.213Z,34.10
2022-12-05T02:34:42.544Z,33.70
2022-12-05T02:35:42.739Z,34.40
2022-12-05T02:36:43.079Z,34.40
2022-12-05T02:37:43.393Z,35.80
2022-12-05T02:38:43.696Z,35.40
2022-12-05T02:39:44.076Z,35.60
2022-12-05T02:40:44.231Z,35.70
2022-12-05T02:41:44.623Z,35.60
2022-12-05T02:42:44.836Z,35.60
2022-12-05T02:43:45.173Z,35.50
2022-12-05T02:44:45.483Z,35.60
2022-12-05T02:45:45.835Z,35.40
2022-12-05T02:46:46.026Z,34.70
2022-12-05T02:47:46.427Z,32.70
2022-12-05T02:48:46.792Z,35.10
2022-12-05T02:49:47.009Z,34.30
2022-12-05T02:50:47.224Z,34.80
2022-12-05T02:51:47.560Z,34.00
2022-12-05T02:52:47.825Z,35.00
2022-12-05T02:53:48.202Z,36.00
2022-12-05T02:54:48.535Z,36.40
2022-12-05T02:55:48.861Z,36.50
2022-12-05T02:56:49.130Z,37.10
2022-12-05T02:57:49.504Z,37.00
2022-12-05T02:58:49.825Z,37.50
2022-12-05T02:59:50.148Z,37.10
2022-12-05T03:00:50.516Z,37.10
2022-12-05T03:01:50.920Z,37.50
2022-12-05T03:02:51.021Z,36.60
2022-12-05T03:03:51.496Z,38.30
2022-12-05T03:04:51.628Z,37.10
2022-12-05T03:05:51.960Z,37.00
2022-12-05T03:06:52.261Z,37.00
2022-12-05T03:07:52.671Z,36.80
2022-12-05T03:08:52.887Z,37.40
2022-12-05T03:09:53.218Z,38.40
2022-12-05T03:10:53.504Z,37.80
2022-12-05T03:11:53.848Z,38.90
2022-12-05T03:12:54.191Z,37.30
2022-12-05T03:13:54.527Z,37.80
2022-12-05T03:14:54.734Z,37.80
2022-12-05T03:15:55.091Z,38.20
2022-12-05T03:16:55.446Z,38.90
2022-12-05T03:17:55.667Z,37.80
2022-12-05T03:18:55.930Z,39.00
2022-12-05T03:19:56.650Z,39.70
2022-12-05T03:20:56.342Z,40.10
2022-12-05T03:21:56.687Z,40.50
2022-12-05T03:22:56.991Z,40.80
2022-12-05T03:23:57.677Z,40.50
2022-12-05T03:24:57.679Z,39.80
2022-12-05T03:25:57.991Z,40.40
2022-12-05T03:26:58.228Z,41.00
2022-12-05T03:27:58.430Z,41.10
2022-12-05T03:28:58.736Z,43.20
2022-12-05T03:29:59.286Z,42.70
2022-12-05T03:30:59.520Z,43.80
2022-12-05T03:31:59.621Z,43.20
2022-12-05T03:32:59.846Z,44.70
2022-12-05T03:34:00.144Z,46.20
2022-12-05T03:35:00.455Z,47.40
2022-12-05T03:36:00.748Z,47.30
2022-12-05T03:37:00.992Z,47.50
2022-12-05T03:38:01.359Z,46.50
2022-12-05T03:39:01.581Z,47.00
2022-12-05T03:40:01.954Z,48.60
2022-12-05T03:41:03.134Z,45.60
2022-12-05T03:42:02.483Z,46.40
2022-12-05T03:43:02.833Z,45.50
2022-12-05T03:44:03.135Z,44.40
2022-12-05T03:45:03.430Z,44.40
2022-12-05T03:46:03.897Z,43.80
2022-12-05T03:47:04.098Z,44.20
2022-12-05T03:48:04.438Z,44.80
2022-12-05T03:49:04.755Z,42.80
2022-12-05T03:50:05.083Z,44.20
2022-12-05T03:51:05.412Z,42.00
2022-12-05T03:52:05.760Z,41.20
2022-12-05T03:53:21.566Z,40.60
2022-12-05T03:54:07.426Z,40.80
2022-12-05T03:55:06.625Z,39.90
2022-12-05T03:56:06.935Z,41.70
2022-12-05T03:57:07.127Z,37.30
2022-12-05T03:58:07.467Z,38.40
2022-12-05T03:59:07.837Z,36.90
2022-12-05T04:00:08.106Z,37.10
2022-12-05T04:01:08.356Z,35.40
2022-12-05T04:02:08.616Z,35.40
2022-12-05T04:03:08.962Z,36.90
2022-12-05T04:04:09.320Z,34.10
2022-12-05T04:05:09.469Z,34.20
2022-12-05T04:06:09.843Z,35.00
2022-12-05T04:07:10.168Z,33.10
2022-12-05T04:08:10.529Z,34.50
2022-12-05T04:09:16.686Z,33.80
2022-12-05T04:10:12.051Z,33.30
2022-12-05T04:11:11.427Z,33.30
2022-12-05T04:12:11.636Z,33.20
2022-12-05T04:13:11.942Z,31.60
2022-12-05T04:14:12.260Z,32.80
2022-12-05T04:15:12.564Z,32.10
2022-12-05T04:16:12.976Z,31.20
2022-12-05T04:17:13.209Z,31.70
2022-12-05T04:18:13.518Z,32.00
2022-12-05T04:19:13.845Z,31.90
2022-12-05T04:20:14.180Z,31.90
2022-12-05T04:21:14.494Z,31.00
2022-12-05T04:22:14.838Z,31.30
2022-12-05T04:23:15.123Z,31.20
2022-12-05T04:24:15.467Z,31.90
2022-12-05T04:25:15.715Z,32.60
2022-12-05T04:26:16.044Z,32.30
2022-12-05T04:27:16.320Z,31.90
2022-12-05T04:28:21.190Z,31.80
2022-12-05T04:29:17.967Z,31.60
2022-12-05T04:30:17.282Z,30.40
2022-12-05T04:31:17.617Z,31.80
2022-12-05T04:32:17.857Z,31.50
2022-12-05T04:33:18.218Z,32.30
2022-12-05T04:34:18.444Z,31.90
2022-12-05T04:35:18.758Z,32.10
2022-12-05T04:36:19.086Z,32.30
2022-12-05T04:37:19.380Z,32.60
2022-12-05T04:38:19.739Z,32.80
2022-12-05T04:39:20.081Z,32.30
2022-12-05T04:40:20.812Z,32.30
2022-12-05T04:41:20.710Z,33.50
2022-12-05T04:42:20.997Z,32.70
2022-12-05T04:43:21.309Z,32.40
2022-12-05T04:44:21.660Z,32.40
2022-12-05T04:45:21.996Z,31.90
2022-12-05T04:46:22.246Z,33.00
2022-12-05T04:47:22.495Z,33.10
2022-12-05T04:48:22.704Z,33.40
2022-12-05T04:49:23.028Z,33.80
2022-12-05T04:50:23.334Z,32.70
2022-12-05T04:51:23.659Z,31.70
2022-12-05T04:52:24.015Z,32.00
2022-12-05T04:53:24.247Z,32.60
2022-12-05T04:54:24.417Z,32.80
2022-12-05T04:55:24.799Z,33.10
2022-12-05T04:56:25.048Z,33.10
2022-12-05T04:57:25.351Z,33.00
2022-12-05T04:58:25.728Z,32.90
2022-12-05T04:59:25.909Z,32.90
2022-12-05T05:00:26.244Z,32.20
2022-12-05T05:01:26.460Z,32.00
2022-12-05T05:02:26.877Z,32.10
2022-12-05T05:03:27.043Z,30.00
2022-12-05T05:04:27.393Z,30.00
2022-12-05T05:05:28.532Z,29.90
2022-12-05T05:06:27.993Z,32.60
2022-12-05T05:07:28.160Z,27.60
2022-12-05T05:08:28.444Z,27.50
2022-12-05T05:09:28.732Z,30.10
2022-12-05T05:10:29.027Z,29.90
2022-12-05T05:11:29.336Z,30.40
2022-12-05T05:12:29.628Z,29.90
2022-12-05T05:13:29.882Z,30.70
2022-12-05T05:14:30.228Z,30.00
2022-12-05T05:15:30.532Z,28.90
2022-12-05T05:16:31.298Z,29.00
2022-12-05T05:17:32.135Z,29.60
2022-12-05T05:18:31.472Z,28.20
2022-12-05T05:19:31.808Z,28.20
2022-12-05T05:20:32.154Z,29.30
2022-12-05T05:21:32.360Z,28.90
2022-12-05T05:22:32.673Z,27.80
2022-12-05T05:23:32.959Z,27.70
2022-12-05T05:24:33.378Z,27.70
2022-12-05T05:25:33.614Z,27.20
2022-12-05T05:26:33.760Z,26.60
2022-12-05T05:27:34.109Z,25.10
2022-12-05T05:28:34.428Z,26.10
2022-12-05T05:29:34.616Z,25.60
2022-12-05T05:30:34.963Z,24.20
2022-12-05T05:31:35.320Z,24.20
2022-12-05T05:32:35.555Z,24.70
2022-12-05T05:33:35.867Z,24.10
2022-12-05T05:34:36.232Z,25.00
2022-12-05T05:35:36.561Z,25.60
2022-12-05T05:36:36.788Z,25.80
2022-12-05T05:37:36.978Z,24.50
2022-12-05T05:38:37.374Z,24.20
2022-12-05T05:39:37.595Z,24.70
2022-12-05T05:40:37.909Z,24.10
2022-12-05T05:41:38.248Z,24.60
2022-12-05T05:42:38.638Z,24.00
2022-12-05T05:43:38.858Z,24.40
2022-12-05T05:44:39.071Z,24.20
2022-12-05T05:45:39.311Z,24.50
2022-12-05T05:46:39.735Z,25.20
2022-12-05T05:47:40.037Z,23.80
2022-12-05T05:48:40.235Z,23.70
2022-12-05T05:49:40.585Z,23.70
2022-12-05T05:50:40.785Z,23.90
2022-12-05T05:51:41.144Z,24.10
2022-12-05T05:52:41.594Z,23.80
2022-12-05T05:53:41.759Z,24.30
2022-12-05T05:54:42.080Z,24.20
2022-12-05T05:55:42.447Z,23.80
2022-12-05T05:56:42.815Z,24.10
2022-12-05T05:57:42.975Z,22.70
2022-12-05T05:58:43.707Z,23.30
2022-12-05T05:59:43.545Z,23.70
2022-12-05T06:00:43.900Z,23.40
2022-12-05T06:01:44.179Z,23.90
2022-12-05T06:02:44.651Z,24.00
2022-12-05T06:03:45.019Z,23.80
2022-12-05T06:04:45.112Z,23.70
2022-12-05T06:05:50.086Z,23.80
2022-12-05T06:06:46.717Z,24.20
2022-12-05T06:07:46.214Z,24.00
2022-12-05T06:08:46.466Z,24.70
2022-12-05T06:09:46.586Z,23.80
2022-12-05T06:10:46.928Z,24.50
2022-12-05T06:11:47.169Z,25.60
2022-12-05T06:12:47.568Z,25.30
2022-12-05T06:13:47.806Z,26.10
2022-12-05T06:14:48.099Z,26.80
2022-12-05T06:15:48.359Z,27.00
2022-12-05T06:16:48.733Z,27.60
2022-12-05T06:17:48.903Z,27.20
2022-12-05T06:18:49.639Z,27.60
2022-12-05T06:19:49.524Z,27.60
2022-12-05T06:20:49.684Z,27.70
2022-12-05T06:21:50.019Z,27.80
2022-12-05T06:22:50.330Z,27.70
2022-12-05T06:23:50.542Z,27.30
2022-12-05T06:24:50.874Z,27.00
2022-12-05T06:25:51.081Z,27.10
2022-12-05T06:26:51.331Z,28.00
2022-12-05T06:27:51.613Z,27.40
2022-12-05T06:28:51.910Z,27.20
2022-12-05T06:29:52.246Z,27.90
2022-12-05T06:30:52.594Z,26.90
2022-12-05T06:31:52.961Z,26.60
2022-12-05T06:32:53.203Z,27.30
2022-12-05T06:33:53.550Z,29.40
2022-12-05T06:34:53.749Z,28.10
2022-12-05T06:35:54.067Z,27.80
2022-12-05T06:36:54.358Z,27.90
2022-12-05T06:37:54.668Z,28.40
2022-12-05T06:38:54.991Z,30.40
2022-12-05T06:39:55.262Z,30.50
2022-12-05T06:40:55.493Z,28.30
2022-12-05T06:41:55.819Z,28.10
2022-12-05T06:42:56.118Z,27.80
2022-12-05T06:44:01.666Z,28.80
2022-12-05T06:44:57.786Z,28.70
2022-12-05T06:45:57.032Z,28.80
2022-12-05T06:46:57.270Z,30.00
2022-12-05T06:47:57.738Z,26.10
2022-12-05T06:48:57.916Z,27.40
2022-12-05T06:49:58.467Z,27.70
2022-12-05T06:50:58.440Z,26.80
2022-12-05T06:51:58.725Z,27.20
2022-12-05T06:52:58.963Z,26.80
2022-12-05T06:53:59.212Z,26.70
2022-12-05T06:54:59.542Z,26.40
2022-12-05T06:55:59.789Z,27.20
2022-12-05T06:57:00.029Z,26.90
2022-12-05T06:58:00.272Z,27.10
2022-12-05T06:59:00.547Z,27.60
2022-12-05T07:00:00.758Z,28.30
2022-12-05T07:01:01.156Z,27.60
2022-12-05T07:02:01.413Z,27.00
2022-12-05T07:03:01.631Z,26.20
2022-12-05T07:04:01.908Z,26.70
2022-12-05T07:05:02.196Z,27.30
2022-12-05T07:06:02.487Z,26.60
2022-12-05T07:07:02.700Z,27.50
2022-12-05T07:08:02.967Z,27.60
2022-12-05T07:09:03.278Z,27.30
2022-12-05T07:10:03.572Z,28.70
2022-12-05T07:11:03.771Z,27.40
2022-12-05T07:12:04.082Z,27.10
2022-12-05T07:13:04.345Z,25.80
2022-12-05T07:14:10.514Z,25.90
2022-12-05T07:15:05.888Z,26.60
2022-12-05T07:16:05.182Z,26.20
2022-12-05T07:17:06.421Z,26.50
2022-12-05T07:18:05.743Z,27.00
2022-12-05T07:19:05.952Z,27.10
2022-12-05T07:20:06.204Z,26.60
2022-12-05T07:21:14.009Z,27.00
2022-12-05T07:22:13.708Z,26.90
2022-12-05T07:23:08.179Z,27.20
2022-12-05T07:24:07.326Z,27.40
2022-12-05T07:25:07.589Z,27.20
2022-12-05T07:26:07.837Z,27.20
2022-12-05T07:27:08.085Z,27.10
2022-12-05T07:28:08.368Z,27.80
2022-12-05T07:29:08.628Z,27.50
2022-12-05T07:30:08.887Z,26.50
2022-12-05T07:31:09.211Z,27.30
2022-12-05T07:32:09.917Z,25.60
2022-12-05T07:33:09.757Z,27.00
2022-12-05T07:34:09.986Z,26.90
2022-12-05T07:35:10.239Z,27.50
2022-12-05T07:36:10.488Z,26.80
2022-12-05T07:37:10.849Z,26.80
2022-12-05T07:38:11.056Z,27.00
2022-12-05T07:39:12.287Z,26.30
2022-12-05T07:40:11.625Z,26.30
2022-12-05T07:41:13.681Z,27.70
2022-12-05T07:42:12.147Z,28.10
2022-12-05T07:43:12.437Z,28.80
2022-12-05T07:44:12.696Z,27.10
2022-12-05T07:45:12.899Z,27.10
2022-12-05T07:46:13.186Z,26.00
2022-12-05T07:47:13.536Z,27.40
2022-12-05T07:48:18.305Z,26.10
2022-12-05T07:49:15.095Z,26.90
2022-12-05T07:50:14.336Z,27.00
2022-12-05T07:51:14.593Z,28.60
2022-12-05T07:52:14.883Z,26.80
2022-12-05T07:53:15.159Z,26.60
2022-12-05T07:54:15.514Z,25.40
2022-12-05T07:55:15.699Z,26.30
2022-12-05T07:56:15.965Z,25.70
2022-12-05T07:57:16.241Z,25.00
2022-12-05T07:58:16.546Z,24.50
2022-12-05T07:59:16.863Z,24.60
2022-12-05T08:00:17.074Z,24.50
2022-12-05T08:01:17.472Z,24.90
2022-12-05T08:02:17.655Z,25.00
2022-12-05T08:03:17.831Z,24.10
2022-12-05T08:04:18.067Z,23.70
2022-12-05T08:05:18.332Z,24.10
2022-12-05T08:06:18.605Z,24.70
2022-12-05T08:07:18.840Z,24.00
2022-12-05T08:08:19.151Z,24.30
2022-12-05T08:09:19.354Z,25.60
2022-12-05T08:10:19.677Z,24.60
2022-12-05T08:11:19.903Z,26.00
2022-12-05T08:12:20.137Z,25.00
2022-12-05T08:13:20.457Z,25.00
2022-12-05T08:14:20.709Z,24.70
2022-12-05T08:15:21.082Z,25.40
2022-12-05T08:16:21.444Z,25.20
2022-12-05T08:17:21.581Z,25.10
2022-12-05T08:18:27.081Z,25.20
2022-12-05T08:19:23.121Z,25.40
2022-12-05T08:20:22.396Z,25.60
2022-12-05T08:21:22.663Z,25.80
2022-12-05T08:22:22.895Z,26.20
2022-12-05T08:23:23.187Z,25.30
2022-12-05T08:24:23.468Z,24.30
2022-12-05T08:25:23.770Z,24.60
2022-12-05T08:26:24.030Z,24.60
2022-12-05T08:27:24.335Z,25.10
2022-12-05T08:28:24.548Z,24.70
2022-12-05T08:29:24.872Z,25.40
2022-12-05T08:30:25.178Z,26.80
2022-12-05T08:31:25.557Z,27.30
2022-12-05T08:32:25.666Z,26.20
2022-12-05T08:33:25.921Z,25.80
2022-12-05T08:34:26.169Z,25.30
2022-12-05T08:35:26.430Z,25.50
2022-12-05T08:36:26.680Z,25.20
2022-12-05T08:37:26.935Z,25.20
2022-12-05T08:38:27.230Z,26.30
2022-12-05T08:39:27.453Z,26.20
2022-12-05T08:40:27.733Z,25.90
2022-12-05T08:41:28.081Z,26.80
2022-12-05T08:42:28.289Z,27.10
2022-12-05T08:43:28.550Z,27.90
2022-12-05T08:44:31.747Z,27.30
2022-12-05T08:45:29.153Z,28.30
2022-12-05T08:46:29.558Z,28.60
2022-12-05T08:47:32.228Z,28.60
2022-12-05T08:48:30.014Z,28.30
2022-12-05T08:49:30.343Z,28.20
2022-12-05T08:50:30.593Z,28.40
2022-12-05T08:51:30.928Z,28.20
2022-12-05T08:52:31.169Z,28.60
2022-12-05T08:53:31.499Z,26.70
2022-12-05T08:54:31.806Z,27.50
2022-12-05T08:55:32.060Z,27.50
2022-12-05T08:56:32.298Z,27.50
2022-12-05T08:57:32.670Z,26.10
2022-12-05T08:58:32.883Z,27.60
2022-12-05T08:59:33.167Z,26.30
2022-12-05T09:00:33.440Z,27.10
2022-12-05T09:01:33.779Z,26.60
2022-12-05T09:02:34.089Z,27.60
2022-12-05T09:03:34.416Z,27.90
2022-12-05T09:04:34.631Z,27.40
2022-12-05T09:05:34.922Z,27.20
2022-12-05T09:06:35.180Z,26.90
2022-12-05T09:07:35.481Z,27.60
2022-12-05T09:08:35.750Z,27.40
2022-12-05T09:09:36.014Z,27.20
2022-12-05T09:10:36.353Z,26.80
2022-12-05T09:11:36.581Z,33.20
2022-12-05T09:12:36.860Z,30.50
2022-12-05T09:13:37.157Z,28.80
2022-12-05T09:14:37.423Z,26.30
2022-12-05T09:15:37.733Z,26.80
2022-12-05T09:16:39.337Z,26.30
2022-12-05T09:17:38.649Z,27.20
2022-12-05T09:18:38.683Z,27.30
2022-12-05T09:19:38.961Z,26.40
2022-12-05T09:20:39.294Z,28.40
2022-12-05T09:21:39.496Z,29.10
2022-12-05T09:22:39.767Z,27.90
2022-12-05T09:23:40.049Z,26.50
2022-12-05T09:24:40.323Z,26.70
2022-12-05T09:25:40.561Z,26.10
2022-12-05T09:26:40.825Z,29.30
2022-12-05T09:27:41.099Z,26.30
2022-12-05T09:28:41.345Z,26.40
2022-12-05T09:29:41.631Z,26.30
2022-12-05T09:30:41.941Z,25.10
2022-12-05T09:31:42.256Z,25.20
2022-12-05T09:32:42.623Z,26.00
2022-12-05T09:33:42.735Z,27.00
2022-12-05T09:34:43.050Z,27.20
2022-12-05T09:35:43.239Z,27.90
2022-12-05T09:36:43.534Z,27.50
2022-12-05T09:37:43.815Z,28.00
2022-12-05T09:38:44.155Z,26.10
2022-12-05T09:39:44.360Z,26.50
2022-12-05T09:40:44.683Z,27.40
2022-12-05T09:41:44.900Z,27.50
2022-12-05T09:42:45.226Z,32.10
2022-12-05T09:43:45.436Z,31.20
2022-12-05T09:44:45.787Z,28.50
2022-12-05T09:45:46.108Z,28.90
2022-12-05T09:46:46.390Z,29.30
2022-12-05T09:47:46.612Z,27.60
2022-12-05T09:48:46.891Z,26.00
2022-12-05T09:49:47.187Z,26.30
2022-12-05T09:50:47.496Z,26.70
2022-12-05T09:51:50.863Z,24.30
2022-12-05T09:52:49.027Z,25.30
2022-12-05T09:53:48.289Z,25.30
2022-12-05T09:54:48.629Z,25.80
2022-12-05T09:55:48.826Z,24.80
2022-12-05T09:56:49.103Z,24.60
2022-12-05T09:57:49.384Z,25.80
2022-12-05T09:58:49.660Z,26.60
2022-12-05T09:59:49.978Z,26.40
2022-12-05T10:00:50.310Z,25.10
2022-12-05T10:01:50.607Z,25.00
2022-12-05T10:02:50.852Z,24.70
2022-12-05T10:03:51.090Z,25.50
2022-12-05T10:04:55.660Z,24.50
2022-12-05T10:05:52.796Z,25.30
2022-12-05T10:06:52.069Z,25.90
2022-12-05T10:07:52.330Z,25.20
2022-12-05T10:08:52.610Z,23.60
2022-12-05T10:09:52.880Z,24.70
2022-12-05T10:10:53.156Z,25.30
2022-12-05T10:11:53.403Z,24.80
2022-12-05T10:12:53.670Z,24.80
2022-12-05T10:13:53.975Z,25.30
2022-12-05T10:14:54.376Z,24.70
2022-12-05T10:15:57.444Z,25.20
2022-12-05T10:16:54.751Z,24.70
2022-12-05T10:17:54.992Z,24.40
2022-12-05T10:18:55.324Z,25.10
2022-12-05T10:19:55.636Z,24.70
2022-12-05T10:20:55.893Z,24.50
2022-12-05T10:21:56.147Z,23.90
2022-12-05T10:22:56.472Z,42.60
2022-12-05T10:23:58.233Z,24.50
2022-12-05T10:24:57.323Z,23.90
2022-12-05T10:25:57.266Z,24.30
2022-12-05T10:26:57.544Z,23.60
2022-12-05T10:27:57.810Z,23.70
2022-12-05T10:28:58.127Z,23.60
2022-12-05T10:29:58.362Z,23.90
2022-12-05T10:30:58.710Z,24.10
2022-12-05T10:31:58.948Z,23.40
2022-12-05T10:33:01.796Z,22.90
2022-12-05T10:33:59.469Z,23.60
2022-12-05T10:35:00.036Z,24.60
2022-12-05T10:36:00.088Z,25.20
2022-12-05T10:37:00.370Z,24.10
2022-12-05T10:38:00.718Z,23.30
2022-12-05T10:39:00.969Z,22.50
2022-12-05T10:40:01.241Z,23.00
2022-12-05T10:41:01.518Z,23.30
2022-12-05T10:42:01.764Z,24.10
2022-12-05T10:43:02.150Z,23.50
2022-12-05T10:44:02.317Z,23.90
2022-12-05T10:45:02.576Z,23.50
2022-12-05T10:46:02.919Z,23.20
2022-12-05T10:47:03.209Z,22.90
2022-12-05T10:48:03.461Z,23.40
2022-12-05T10:49:03.905Z,24.20
2022-12-05T10:50:04.014Z,23.40
2022-12-05T10:51:04.312Z,22.90
2022-12-05T10:52:04.620Z,23.20
2022-12-05T10:53:04.863Z,23.40
2022-12-05T10:54:05.189Z,22.60
2022-12-05T10:55:05.420Z,22.60
2022-12-05T10:56:29.929Z,22.80
2022-12-05T10:57:06.952Z,22.80
2022-12-05T10:58:06.227Z,23.10
2022-12-05T10:59:06.605Z,22.40
2022-12-05T11:00:06.811Z,22.80
2022-12-05T11:01:07.054Z,22.00
2022-12-05T11:02:07.472Z,22.90
2022-12-05T11:03:07.640Z,23.40
2022-12-05T11:04:13.325Z,22.40
2022-12-05T11:05:09.233Z,23.20
2022-12-05T11:06:08.524Z,23.20
2022-12-05T11:07:08.852Z,23.20
2022-12-05T11:08:10.062Z,22.90
2022-12-05T11:09:09.393Z,22.30
2022-12-05T11:10:09.609Z,23.40
2022-12-05T11:11:09.878Z,22.70
2022-12-05T11:12:10.194Z,24.50
2022-12-05T11:13:10.450Z,23.50
2022-12-05T11:14:11.208Z,22.90
2022-12-05T11:15:11.093Z,23.40
2022-12-05T11:16:11.415Z,22.80
2022-12-05T11:17:11.678Z,23.80
2022-12-05T11:18:11.954Z,22.80
2022-12-05T11:19:12.199Z,22.90
2022-12-05T11:20:12.536Z,22.10
2022-12-05T11:21:12.833Z,22.20
2022-12-05T11:22:13.069Z,22.80
2022-12-05T11:23:13.372Z,22.60
2022-12-05T11:24:13.616Z,22.50
2022-12-05T11:25:13.886Z,22.90
2022-12-05T11:26:14.179Z,22.30
2022-12-05T11:27:14.448Z,22.90
2022-12-05T11:28:14.719Z,22.10
2022-12-05T11:29:15.001Z,25.30
2022-12-05T11:30:15.302Z,22.50
2022-12-05T11:31:15.634Z,23.50
2022-12-05T11:32:15.885Z,22.70
2022-12-05T11:33:16.186Z,22.20
2022-12-05T11:34:16.447Z,24.20
2022-12-05T11:35:16.771Z,22.90
2022-12-05T11:36:16.985Z,22.20
2022-12-05T11:37:17.328Z,22.00
2022-12-05T11:38:17.575Z,22.80
2022-12-05T11:39:17.811Z,23.00
2022-12-05T11:40:18.135Z,23.30
2022-12-05T11:41:18.361Z,23.10
2022-12-05T11:42:18.624Z,21.80
2022-12-05T11:43:18.923Z,22.70
2022-12-05T11:44:19.262Z,22.80
2022-12-05T11:45:19.544Z,22.50
2022-12-05T11:46:24.943Z,22.60
2022-12-05T11:47:21.083Z,22.20
2022-12-05T11:48:20.399Z,22.50
2022-12-05T11:49:20.691Z,21.90
2022-12-05T11:50:20.962Z,22.60
2022-12-05T11:51:21.274Z,22.10
2022-12-05T11:52:21.474Z,22.50
2022-12-05T11:53:21.788Z,22.40
2022-12-05T11:54:35.905Z,22.10
2022-12-05T11:55:23.305Z,22.10
2022-12-05T11:56:24.904Z,22.40
2022-12-05T11:57:22.941Z,22.40
2022-12-05T11:58:23.261Z,22.80
2022-12-05T11:59:23.497Z,22.90
2022-12-05T12:00:23.763Z,23.40
2022-12-05T12:01:24.069Z,23.50
2022-12-05T12:02:24.336Z,23.50
2022-12-05T12:03:29.812Z,22.30
2022-12-05T12:04:25.818Z,22.00
2022-12-05T12:05:25.093Z,22.70
2022-12-05T12:06:25.820Z,22.10
2022-12-05T12:07:25.685Z,22.00
2022-12-05T12:08:25.964Z,23.10
2022-12-05T12:09:26.244Z,22.90
2022-12-05T12:10:26.517Z,26.40
2022-12-05T12:11:26.830Z,24.50
2022-12-05T12:12:27.068Z,24.40
2022-12-05T12:13:27.362Z,22.70
2022-12-05T12:14:27.625Z,22.70
2022-12-05T12:15:27.950Z,23.00
2022-12-05T12:16:28.258Z,22.20
2022-12-05T12:17:28.521Z,23.10
2022-12-05T12:18:28.763Z,22.80
2022-12-05T12:19:29.112Z,22.50
2022-12-05T12:20:29.372Z,22.20
2022-12-05T12:21:33.928Z,22.90
2022-12-05T12:22:30.863Z,22.30
2022-12-05T12:23:30.186Z,22.90
2022-12-05T12:24:30.400Z,21.90
2022-12-05T12:25:30.685Z,22.30
2022-12-05T12:26:30.925Z,22.40
2022-12-05T12:27:31.215Z,23.00
2022-12-05T12:28:31.499Z,23.20
2022-12-05T12:29:31.781Z,24.90
2022-12-05T12:30:32.011Z,23.60
2022-12-05T12:31:32.384Z,21.20
2022-12-05T12:32:32.588Z,21.30
2022-12-05T12:33:32.873Z,20.40
2022-12-05T12:34:33.158Z,21.00
2022-12-05T12:35:33.436Z,22.10
2022-12-05T12:36:33.687Z,20.40
2022-12-05T12:37:33.987Z,21.60
2022-12-05T12:38:34.328Z,22.10
2022-12-05T12:39:34.553Z,21.40
2022-12-05T12:40:34.864Z,21.10
2022-12-05T12:41:35.101Z,21.70
2022-12-05T12:42:35.421Z,20.80
2022-12-05T12:44:36.961Z,20.50
2022-12-05T12:45:36.288Z,20.80
2022-12-05T12:46:36.659Z,20.70
2022-12-05T12:47:36.800Z,20.90
2022-12-05T12:48:37.026Z,21.60
2022-12-05T12:49:37.409Z,21.50
2022-12-05T12:50:43.251Z,20.60
2022-12-05T12:51:38.893Z,23.60
2022-12-05T12:52:38.175Z,21.40
2022-12-05T12:53:38.468Z,20.60
2022-12-05T12:55:14.036Z,20.70
2022-12-05T12:55:40.050Z,20.50
2022-12-05T12:56:39.356Z,21.30
2022-12-05T12:57:39.729Z,20.60